createdAt,value
2022-07-30T00:03:51.507Z,0
2022-07-30T00:08:50.424Z,0
2022-07-30T00:13:50.423Z,0
2022-07-30T00:18:50.468Z,0
2022-07-30T00:23:51.223Z,0
2022-07-30T00:28:50.487Z,0
2022-07-30T00:33:50.536Z,0
2022-07-30T00:38:50.533Z,0
2022-07-30T00:43:50.569Z,0
2022-07-30T00:48:50.651Z,0
2022-07-30T00:53:50.609Z,0
2022-07-30T00:58:50.674Z,0
2022-07-30T01:03:50.653Z,0
2022-07-30T01:08:50.688Z,0
2022-07-30T01:13:50.677Z,0
2022-07-30T01:18:50.732Z,0
2022-07-30T01:23:50.721Z,0
2022-07-30T01:28:50.771Z,0
2022-07-30T01:33:50.814Z,0
2022-07-30T01:38:50.834Z,0
2022-07-30T01:43:50.819Z,0
2022-07-30T01:48:50.844Z,0
2022-07-30T01:53:50.851Z,0
2022-07-30T01:58:50.890Z,0
2022-07-30T02:03:50.940Z,0
2022-07-30T02:08:50.938Z,0
2022-07-30T02:13:50.925Z,0
2022-07-30T02:18:50.953Z,0
2022-07-30T02:23:50.957Z,0
2022-07-30T02:28:51.011Z,0
2022-07-30T02:33:51.015Z,0
2022-07-30T02:38:51.047Z,0
2022-07-30T02:43:51.053Z,0
2022-07-30T02:48:51.122Z,0
2022-07-30T02:53:51.957Z,0
2022-07-30T02:58:51.141Z,0
2022-07-30T03:03:51.125Z,0
2022-07-30T03:08:51.186Z,0
2022-07-30T03:13:51.236Z,0
2022-07-30T03:18:51.190Z,0
2022-07-30T03:23:51.240Z,0
2022-07-30T03:28:51.243Z,0
2022-07-30T03:33:51.282Z,0
2022-07-30T03:38:51.293Z,0
2022-07-30T03:43:51.304Z,0
2022-07-30T03:48:51.363Z,0
2022-07-30T03:53:51.332Z,0
2022-07-30T03:58:51.346Z,0
2022-07-30T04:03:51.418Z,0
2022-07-30T04:08:51.389Z,1
2022-07-30T04:13:51.416Z,3
2022-07-30T04:18:51.459Z,4
2022-07-30T04:24:01.965Z,4
2022-07-30T04:28:51.490Z,3
2022-07-30T04:33:51.516Z,4
2022-07-30T04:38:51.544Z,4
2022-07-30T04:43:51.589Z,4
2022-07-30T04:48:51.622Z,3
2022-07-30T04:53:51.599Z,5
2022-07-30T04:58:51.627Z,7
2022-07-30T05:03:51.628Z,9
2022-07-30T05:08:51.681Z,10
2022-07-30T05:13:51.702Z,16
2022-07-30T05:18:51.717Z,16
2022-07-30T05:23:51.725Z,13
2022-07-30T05:28:54.051Z,15
2022-07-30T05:33:51.746Z,13
2022-07-30T05:38:51.773Z,17
2022-07-30T05:43:55.611Z,20
2022-07-30T05:48:51.871Z,22
2022-07-30T05:53:51.839Z,24
2022-07-30T05:58:52.118Z,26
2022-07-30T06:03:52.144Z,30
2022-07-30T06:08:52.234Z,34
2022-07-30T06:13:52.179Z,36
2022-07-30T06:18:52.233Z,37
2022-07-30T06:23:52.237Z,40
2022-07-30T06:28:52.510Z,41
2022-07-30T06:33:52.530Z,45
2022-07-30T06:38:52.549Z,54
2022-07-30T06:43:52.546Z,77
2022-07-30T06:48:52.973Z,98
2022-07-30T06:53:52.871Z,115
2022-07-30T06:58:52.885Z,121
2022-07-30T07:03:52.922Z,131
2022-07-30T07:08:52.918Z,150
2022-07-30T07:13:52.968Z,164
2022-07-30T07:18:52.957Z,141
2022-07-30T07:23:52.986Z,115
2022-07-30T07:28:53.015Z,120
2022-07-30T07:33:52.999Z,152
2022-07-30T07:38:53.039Z,173
2022-07-30T07:43:53.048Z,212
2022-07-30T07:48:53.162Z,214
2022-07-30T07:54:18.924Z,206
2022-07-30T07:58:56.539Z,360
2022-07-30T08:03:53.921Z,296
2022-07-30T08:08:53.937Z,474
2022-07-30T08:13:55.973Z,565
2022-07-30T08:18:55.991Z,513
2022-07-30T08:23:55.996Z,347
2022-07-30T08:28:56.057Z,309
2022-07-30T08:33:57.081Z,344
2022-07-30T08:38:57.055Z,596
2022-07-30T08:43:57.069Z,686
2022-07-30T08:48:59.791Z,690
2022-07-30T08:54:00.321Z,701
2022-07-30T08:59:00.287Z,769
2022-07-30T09:04:00.289Z,790
2022-07-30T09:09:00.218Z,804
2022-07-30T09:14:00.246Z,706
2022-07-30T09:19:00.266Z,700
2022-07-30T09:24:00.524Z,544
2022-07-30T09:29:00.535Z,418
2022-07-30T09:34:00.575Z,370
2022-07-30T09:39:00.606Z,379
2022-07-30T09:44:00.598Z,414
2022-07-30T09:49:00.727Z,431
2022-07-30T09:54:01.004Z,388
2022-07-30T09:59:00.674Z,466
2022-07-30T10:04:00.684Z,732
2022-07-30T10:09:00.755Z,888
2022-07-30T10:14:00.734Z,780
2022-07-30T10:19:01.067Z,810
2022-07-30T10:24:00.809Z,846
2022-07-30T10:29:02.106Z,738
2022-07-30T10:34:01.979Z,960
2022-07-30T10:39:01.984Z,581
2022-07-30T10:44:02.703Z,576
2022-07-30T10:49:03.386Z,960
2022-07-30T10:54:03.372Z,983
2022-07-30T10:59:03.400Z,992
2022-07-30T11:04:03.382Z,979
2022-07-30T11:09:03.443Z,978
2022-07-30T11:14:03.480Z,1008
2022-07-30T11:19:19.698Z,815
2022-07-30T11:24:03.505Z,527
2022-07-30T11:29:03.483Z,482
2022-07-30T11:34:03.558Z,782
2022-07-30T11:39:07.347Z,1053
2022-07-30T11:44:04.192Z,446
2022-07-30T11:49:04.307Z,506
2022-07-30T11:54:04.250Z,631
2022-07-30T11:59:04.269Z,243
2022-07-30T12:04:06.377Z,216
2022-07-30T12:09:06.398Z,246
2022-07-30T12:14:07.544Z,230
2022-07-30T12:19:09.432Z,220
2022-07-30T12:24:07.722Z,228
2022-07-30T12:29:08.312Z,222
2022-07-30T12:34:08.173Z,552
2022-07-30T12:39:08.296Z,359
2022-07-30T12:44:08.233Z,209
2022-07-30T12:49:21.138Z,228
2022-07-30T12:54:08.762Z,279
2022-07-30T12:59:08.757Z,262
2022-07-30T13:04:08.797Z,171
2022-07-30T13:09:08.839Z,158
2022-07-30T13:14:08.827Z,193
2022-07-30T13:19:08.898Z,226
2022-07-30T13:24:08.875Z,242
2022-07-30T13:29:08.900Z,261
2022-07-30T13:34:08.947Z,284
2022-07-30T13:39:08.924Z,315
2022-07-30T13:44:08.975Z,308
2022-07-30T13:49:09.127Z,347
2022-07-30T13:54:10.709Z,775
2022-07-30T13:59:09.054Z,764
2022-07-30T14:04:09.062Z,430
2022-07-30T14:09:09.101Z,318
2022-07-30T14:14:09.096Z,261
2022-07-30T14:19:09.099Z,318
2022-07-30T14:24:09.145Z,381
2022-07-30T14:29:09.183Z,282
2022-07-30T14:34:09.197Z,268
2022-07-30T14:39:09.210Z,245
2022-07-30T14:44:09.249Z,311
2022-07-30T14:49:09.349Z,480
2022-07-30T14:54:09.272Z,311
2022-07-30T14:59:09.285Z,514
2022-07-30T15:04:09.343Z,459
2022-07-30T15:09:09.336Z,186
2022-07-30T15:14:09.348Z,147
2022-07-30T15:19:09.400Z,129
2022-07-30T15:24:09.417Z,136
2022-07-30T15:29:13.262Z,172
2022-07-30T15:34:09.433Z,322
2022-07-30T15:39:09.495Z,397
2022-07-30T15:44:09.496Z,311
2022-07-30T15:49:09.521Z,270
2022-07-30T15:54:09.526Z,202
2022-07-30T15:59:09.560Z,187
2022-07-30T16:04:18.243Z,167
2022-07-30T16:09:09.625Z,166
2022-07-30T16:14:09.641Z,191
2022-07-30T16:19:09.636Z,266
2022-07-30T16:24:09.659Z,207
2022-07-30T16:29:13.623Z,136
2022-07-30T16:34:09.735Z,198
2022-07-30T16:39:09.735Z,190
2022-07-30T16:44:09.772Z,167
2022-07-30T16:49:09.814Z,135
2022-07-30T16:54:09.818Z,73
2022-07-30T16:59:13.635Z,67
2022-07-30T17:04:14.991Z,89
2022-07-30T17:09:15.764Z,107
2022-07-30T17:14:15.010Z,80
2022-07-30T17:19:15.031Z,51
2022-07-30T17:24:15.085Z,40
2022-07-30T17:29:15.230Z,36
2022-07-30T17:34:15.090Z,41
2022-07-30T17:40:01.447Z,45
2022-07-30T17:44:15.167Z,54
2022-07-30T17:49:15.208Z,58
2022-07-30T17:54:15.192Z,54
2022-07-30T17:59:15.227Z,45
2022-07-30T18:04:15.236Z,38
2022-07-30T18:09:15.308Z,32
2022-07-30T18:14:15.266Z,34
2022-07-30T18:19:22.965Z,29
2022-07-30T18:24:19.799Z,27
2022-07-30T18:29:20.966Z,25
2022-07-30T18:34:19.838Z,16
2022-07-30T18:39:19.850Z,9
2022-07-30T18:44:19.879Z,18
2022-07-30T18:49:35.891Z,9
2022-07-30T18:54:20.217Z,3
2022-07-30T18:59:19.965Z,3
2022-07-30T19:04:19.938Z,1
2022-07-30T19:09:19.981Z,1
2022-07-30T19:14:20.022Z,0
2022-07-30T19:19:20.033Z,0
2022-07-30T19:24:20.063Z,0
2022-07-30T19:29:20.096Z,0
2022-07-30T19:34:20.099Z,0
2022-07-30T19:39:21.155Z,0
2022-07-30T19:44:20.161Z,0
2022-07-30T19:49:20.236Z,0
2022-07-30T19:54:20.162Z,0
2022-07-30T19:59:25.321Z,0
2022-07-30T20:04:20.207Z,0
2022-07-30T20:09:20.252Z,0
2022-07-30T20:14:20.263Z,0
2022-07-30T20:19:20.295Z,0
2022-07-30T20:24:20.304Z,0
2022-07-30T20:29:20.722Z,0
2022-07-30T20:34:20.372Z,0
2022-07-30T20:39:20.401Z,0
2022-07-30T20:44:23.261Z,0
2022-07-30T20:49:23.755Z,0
2022-07-30T20:54:20.446Z,0
2022-07-30T20:59:20.638Z,0
2022-07-30T21:04:23.737Z,0
2022-07-30T21:09:20.500Z,0
2022-07-30T21:14:20.527Z,0
2022-07-30T21:19:20.549Z,0
2022-07-30T21:24:20.544Z,0
2022-07-30T21:29:20.557Z,0
2022-07-30T21:34:20.629Z,0
2022-07-30T21:39:20.647Z,0
2022-07-30T21:44:20.629Z,0
2022-07-30T21:49:20.790Z,0
2022-07-30T21:54:28.508Z,0
2022-07-30T21:59:21.944Z,0
2022-07-30T22:04:20.735Z,0
2022-07-30T22:09:32.958Z,0
2022-07-30T22:14:20.766Z,0
2022-07-30T22:19:20.783Z,0
2022-07-30T22:24:26.362Z,0
2022-07-30T22:29:20.845Z,0
2022-07-30T22:34:20.848Z,0
2022-07-30T22:39:20.850Z,0
2022-07-30T22:44:20.917Z,0
2022-07-30T22:49:23.501Z,0
2022-07-30T22:54:20.931Z,0
2022-07-30T22:59:29.084Z,0
2022-07-30T23:04:20.997Z,0
2022-07-30T23:09:20.966Z,0
2022-07-30T23:14:20.994Z,0
2022-07-30T23:19:22.156Z,0
2022-07-30T23:24:21.087Z,0
2022-07-30T23:29:21.092Z,0
2022-07-30T23:34:21.095Z,0
2022-07-30T23:39:21.097Z,0
2022-07-30T23:44:21.137Z,0
2022-07-30T23:49:21.236Z,0
2022-07-30T23:54:21.154Z,0
2022-07-30T23:59:21.223Z,0
